sensor_id;sensor_type;location;lat;lon;timestamp;pressure;altitude;pressure_sealevel;temperature;humidity
70546;BME280;58098;51.680;5.134;2023-02-20T00:00:49;102684.16;;;5.32;100.00
70546;BME280;58098;51.680;5.134;2023-02-20T00:03:15;102693.66;;;5.31;100.00
70546;BME280;58098;51.680;5.134;2023-02-20T00:05:40;102693.66;;;5.31;100.00
70546;BME280;58098;51.680;5.134;2023-02-20T00:08:06;102691.19;;;5.27;100.00
70546;BME280;58098;51.680;5.134;2023-02-20T00:10:31;102677.69;;;5.16;100.00
70546;BME280;58098;51.680;5.134;2023-02-20T00:12:56;102676.78;;;5.17;100.00
70546;BME280;58098;51.680;5.134;2023-02-20T00:15:22;102677.59;;;5.19;100.00
70546;BME280;58098;51.680;5.134;2023-02-20T00:17:47;102681.91;;;5.18;100.00
70546;BME280;58098;51.680;5.134;2023-02-20T00:20:18;102660.59;;;5.10;100.00
70546;BME280;58098;51.680;5.134;2023-02-20T00:22:44;102659.81;;;5.07;100.00
70546;BME280;58098;51.680;5.134;2023-02-20T00:25:11;102665.78;;;5.09;100.00
70546;BME280;58098;51.680;5.134;2023-02-20T00:27:36;102656.47;;;5.03;100.00
70546;BME280;58098;51.680;5.134;2023-02-20T00:30:03;102653.91;;;5.02;100.00
70546;BME280;58098;51.680;5.134;2023-02-20T00:32:29;102635.25;;;4.91;100.00
70546;BME280;58098;51.680;5.134;2023-02-20T00:34:54;102641.97;;;4.98;100.00
70546;BME280;58098;51.680;5.134;2023-02-20T00:37:19;102631.88;;;4.89;100.00
70546;BME280;58098;51.680;5.134;2023-02-20T00:39:45;102629.22;;;4.90;100.00
70546;BME280;58098;51.680;5.134;2023-02-20T00:42:10;102616.50;;;4.83;100.00
70546;BME280;58098;51.680;5.134;2023-02-20T00:44:35;102614.09;;;4.77;100.00
70546;BME280;58098;51.680;5.134;2023-02-20T00:47:01;102613.25;;;4.75;100.00
70546;BME280;58098;51.680;5.134;2023-02-20T00:49:26;102612.25;;;4.80;100.00
70546;BME280;58098;51.680;5.134;2023-02-20T00:51:51;102604.69;;;4.73;100.00
70546;BME280;58098;51.680;5.134;2023-02-20T00:54:17;102619.28;;;4.75;100.00
70546;BME280;58098;51.680;5.134;2023-02-20T00:56:42;102615.03;;;4.73;100.00
70546;BME280;58098;51.680;5.134;2023-02-20T00:59:07;102613.50;;;4.65;100.00
70546;BME280;58098;51.680;5.134;2023-02-20T01:01:33;102619.47;;;4.69;100.00
70546;BME280;58098;51.680;5.134;2023-02-20T01:03:58;102609.16;;;4.67;100.00
70546;BME280;58098;51.680;5.134;2023-02-20T01:06:23;102609.25;;;4.63;100.00
70546;BME280;58098;51.680;5.134;2023-02-20T01:08:49;102602.56;;;4.56;100.00
70546;BME280;58098;51.680;5.134;2023-02-20T01:11:15;102608.59;;;4.56;100.00
70546;BME280;58098;51.680;5.134;2023-02-20T01:13:40;102608.66;;;4.53;100.00
70546;BME280;58098;51.680;5.134;2023-02-20T01:16:06;102612.91;;;4.56;100.00
70546;BME280;58098;51.680;5.134;2023-02-20T01:18:31;102628.16;;;4.65;100.00
70546;BME280;58098;51.680;5.134;2023-02-20T01:20:56;102628.22;;;4.63;100.00
70546;BME280;58098;51.680;5.134;2023-02-20T01:23:22;102618.84;;;4.59;100.00
70546;BME280;58098;51.680;5.134;2023-02-20T01:25:47;102605.13;;;4.57;100.00
70546;BME280;58098;51.680;5.134;2023-02-20T01:28:13;102610.97;;;4.64;100.00
70546;BME280;58098;51.680;5.134;2023-02-20T01:30:38;102608.50;;;4.59;100.00
70546;BME280;58098;51.680;5.134;2023-02-20T01:33:03;102602.53;;;4.57;100.00
70546;BME280;58098;51.680;5.134;2023-02-20T01:35:29;102597.50;;;4.51;100.00
70546;BME280;58098;51.680;5.134;2023-02-20T01:37:59;102605.19;;;4.54;100.00
70546;BME280;58098;51.680;5.134;2023-02-20T01:40:26;102590.63;;;4.50;100.00
70546;BME280;58098;51.680;5.134;2023-02-20T01:42:51;102597.41;;;4.56;100.00
70546;BME280;58098;51.680;5.134;2023-02-20T01:47:49;102564.16;;;4.42;100.00
70546;BME280;58098;51.680;5.134;2023-02-20T01:50:17;102565.78;;;4.46;100.00
70546;BME280;58098;51.680;5.134;2023-02-20T01:52:47;102566.44;;;4.53;100.00
70546;BME280;58098;51.680;5.134;2023-02-20T01:55:54;102556.97;;;4.53;100.00
70546;BME280;58098;51.680;5.134;2023-02-20T01:58:42;102546.63;;;4.53;100.00
70546;BME280;58098;51.680;5.134;2023-02-20T02:01:10;102533.91;;;4.46;100.00
70546;BME280;58098;51.680;5.134;2023-02-20T02:03:38;102523.41;;;4.52;100.00
70546;BME280;58098;51.680;5.134;2023-02-20T02:06:07;102515.75;;;4.49;100.00
70546;BME280;58098;51.680;5.134;2023-02-20T02:08:35;102514.00;;;4.49;100.00
70546;BME280;58098;51.680;5.134;2023-02-20T02:11:08;102509.69;;;4.50;100.00
70546;BME280;58098;51.680;5.134;2023-02-20T02:13:35;102505.53;;;4.44;100.00
70546;BME280;58098;51.680;5.134;2023-02-20T02:18:35;102527.66;;;4.54;100.00
70546;BME280;58098;51.680;5.134;2023-02-20T02:21:35;102511.44;;;4.48;100.00
70546;BME280;58098;51.680;5.134;2023-02-20T02:38:25;102492.56;;;4.77;100.00
70546;BME280;58098;51.680;5.134;2023-02-20T02:41:14;102498.28;;;4.88;100.00
70546;BME280;58098;51.680;5.134;2023-02-20T02:43:53;102487.78;;;4.94;100.00
70546;BME280;58098;51.680;5.134;2023-02-20T02:46:32;102475.00;;;4.88;100.00
70546;BME280;58098;51.680;5.134;2023-02-20T02:49:09;102472.25;;;4.94;100.00
70546;BME280;58098;51.680;5.134;2023-02-20T02:51:37;102482.41;;;5.00;100.00
70546;BME280;58098;51.680;5.134;2023-02-20T02:54:14;102459.56;;;4.85;100.00
70546;BME280;58098;51.680;5.134;2023-02-20T02:56:42;102468.84;;;4.92;100.00
70546;BME280;58098;51.680;5.134;2023-02-20T02:59:13;102472.84;;;5.02;100.00
70546;BME280;58098;51.680;5.134;2023-02-20T03:01:43;102478.78;;;5.05;100.00
70546;BME280;58098;51.680;5.134;2023-02-20T03:04:11;102467.59;;;5.05;100.00
70546;BME280;58098;51.680;5.134;2023-02-20T03:06:41;102470.25;;;5.02;100.00
70546;BME280;58098;51.680;5.134;2023-02-20T03:09:14;102460.72;;;5.04;100.00
70546;BME280;58098;51.680;5.134;2023-02-20T03:11:42;102460.69;;;5.05;100.00
70546;BME280;58098;51.680;5.134;2023-02-20T03:14:19;102463.84;;;5.15;100.00
70546;BME280;58098;51.680;5.134;2023-02-20T03:17:11;102423.09;;;4.94;100.00
70546;BME280;58098;51.680;5.134;2023-02-20T03:19:50;102461.09;;;5.19;100.00
70546;BME280;58098;51.680;5.134;2023-02-20T03:22:21;102452.56;;;5.17;100.00
70546;BME280;58098;51.680;5.134;2023-02-20T03:24:49;102463.47;;;5.27;100.00
70546;BME280;58098;51.680;5.134;2023-02-20T03:27:52;102468.56;;;5.30;100.00
70546;BME280;58098;51.680;5.134;2023-02-20T03:30:27;102456.34;;;5.33;100.00
70546;BME280;58098;51.680;5.134;2023-02-20T03:33:01;102456.41;;;5.32;100.00
70546;BME280;58098;51.680;5.134;2023-02-20T03:35:47;102456.09;;;5.41;100.00
70546;BME280;58098;51.680;5.134;2023-02-20T03:38:36;102459.41;;;5.46;100.00
70546;BME280;58098;51.680;5.134;2023-02-20T03:41:22;102432.72;;;5.44;100.00
70546;BME280;58098;51.680;5.134;2023-02-20T03:44:09;102443.78;;;5.49;100.00
70546;BME280;58098;51.680;5.134;2023-02-20T03:46:37;102441.03;;;5.54;100.00
70546;BME280;58098;51.680;5.134;2023-02-20T03:49:11;102451.06;;;5.64;100.00
70546;BME280;58098;51.680;5.134;2023-02-20T03:51:38;102451.75;;;5.69;100.00
70546;BME280;58098;51.680;5.134;2023-02-20T03:54:04;102459.38;;;5.74;100.00
70546;BME280;58098;51.680;5.134;2023-02-20T03:56:35;102460.94;;;5.78;100.00
70546;BME280;58098;51.680;5.134;2023-02-20T03:59:13;102449.75;;;5.77;100.00
70546;BME280;58098;51.680;5.134;2023-02-20T04:01:42;102454.50;;;5.91;100.00
70546;BME280;58098;51.680;5.134;2023-02-20T04:04:13;102439.66;;;5.96;100.00
70546;BME280;58098;51.680;5.134;2023-02-20T04:06:42;102440.63;;;5.93;100.00
70546;BME280;58098;51.680;5.134;2023-02-20T04:09:17;102446.19;;;6.06;100.00
70546;BME280;58098;51.680;5.134;2023-02-20T04:12:15;102447.16;;;6.04;100.00
70546;BME280;58098;51.680;5.134;2023-02-20T04:14:42;102441.88;;;6.07;100.00
70546;BME280;58098;51.680;5.134;2023-02-20T04:17:12;102438.47;;;6.05;100.00
70546;BME280;58098;51.680;5.134;2023-02-20T04:19:39;102446.84;;;6.13;100.00
70546;BME280;58098;51.680;5.134;2023-02-20T04:22:09;102449.28;;;6.17;100.00
70546;BME280;58098;51.680;5.134;2023-02-20T04:24:42;102452.72;;;6.18;100.00
70546;BME280;58098;51.680;5.134;2023-02-20T04:27:09;102463.78;;;6.23;100.00
70546;BME280;58098;51.680;5.134;2023-02-20T04:29:35;102450.13;;;6.18;100.00
70546;BME280;58098;51.680;5.134;2023-02-20T04:32:01;102470.53;;;6.27;100.00
70546;BME280;58098;51.680;5.134;2023-02-20T04:34:26;102455.59;;;6.33;100.00
70546;BME280;58098;51.680;5.134;2023-02-20T04:37:05;102457.34;;;6.33;100.00
70546;BME280;58098;51.680;5.134;2023-02-20T04:39:31;102463.22;;;6.38;100.00
70546;BME280;58098;51.680;5.134;2023-02-20T04:41:56;102466.63;;;6.40;100.00
70546;BME280;58098;51.680;5.134;2023-02-20T04:44:21;102474.97;;;6.48;100.00
70546;BME280;58098;51.680;5.134;2023-02-20T04:46:57;102443.28;;;6.40;100.00
70546;BME280;58098;51.680;5.134;2023-02-20T04:49:22;102448.31;;;6.44;100.00
70546;BME280;58098;51.680;5.134;2023-02-20T04:51:47;102448.31;;;6.44;100.00
70546;BME280;58098;51.680;5.134;2023-02-20T04:54:13;102450.78;;;6.47;100.00
70546;BME280;58098;51.680;5.134;2023-02-20T04:56:38;102465.06;;;6.59;100.00
70546;BME280;58098;51.680;5.134;2023-02-20T04:59:03;102452.09;;;6.59;100.00
70546;BME280;58098;51.680;5.134;2023-02-20T05:01:29;102458.75;;;6.66;100.00
70546;BME280;58098;51.680;5.134;2023-02-20T05:03:54;102458.91;;;6.61;100.00
70546;BME280;58098;51.680;5.134;2023-02-20T05:06:20;102458.63;;;6.69;100.00
70546;BME280;58098;51.680;5.134;2023-02-20T05:08:45;102464.03;;;6.63;100.00
70546;BME280;58098;51.680;5.134;2023-02-20T05:11:10;102465.50;;;6.70;100.00
70546;BME280;58098;51.680;5.134;2023-02-20T05:13:36;102468.44;;;6.61;100.00
70546;BME280;58098;51.680;5.134;2023-02-20T05:16:01;102468.88;;;6.72;100.00
70546;BME280;58098;51.680;5.134;2023-02-20T05:18:28;102474.81;;;6.76;100.00
70546;BME280;58098;51.680;5.134;2023-02-20T05:20:54;102466.97;;;6.77;100.00
70546;BME280;58098;51.680;5.134;2023-02-20T05:23:38;102463.59;;;6.75;100.00
70546;BME280;58098;51.680;5.134;2023-02-20T05:26:10;102461.88;;;6.74;100.00
70546;BME280;58098;51.680;5.134;2023-02-20T05:28:37;102466.25;;;6.74;100.00
70546;BME280;58098;51.680;5.134;2023-02-20T05:31:04;102465.16;;;6.79;100.00
70546;BME280;58098;51.680;5.134;2023-02-20T05:33:30;102453.22;;;6.75;100.00
70546;BME280;58098;51.680;5.134;2023-02-20T05:35:55;102449.72;;;6.76;100.00
70546;BME280;58098;51.680;5.134;2023-02-20T05:38:20;102450.63;;;6.75;100.00
70546;BME280;58098;51.680;5.134;2023-02-20T05:40:46;102447.06;;;6.78;100.00
70546;BME280;58098;51.680;5.134;2023-02-20T05:43:11;102453.59;;;6.88;100.00
70546;BME280;58098;51.680;5.134;2023-02-20T05:45:36;102458.78;;;6.88;100.00
70546;BME280;58098;51.680;5.134;2023-02-20T05:48:02;102457.84;;;6.90;100.00
70546;BME280;58098;51.680;5.134;2023-02-20T05:50:27;102450.34;;;6.83;100.00
70546;BME280;58098;51.680;5.134;2023-02-20T05:52:52;102444.28;;;6.82;100.00
70546;BME280;58098;51.680;5.134;2023-02-20T05:55:18;102439.97;;;6.83;100.00
70546;BME280;58098;51.680;5.134;2023-02-20T05:57:43;102459.66;;;6.88;100.00
70546;BME280;58098;51.680;5.134;2023-02-20T06:00:09;102458.41;;;6.98;100.00
70546;BME280;58098;51.680;5.134;2023-02-20T06:02:35;102457.59;;;6.96;100.00
70546;BME280;58098;51.680;5.134;2023-02-20T06:05:02;102453.13;;;7.00;100.00
70546;BME280;58098;51.680;5.134;2023-02-20T06:07:29;102466.97;;;7.00;100.00
70546;BME280;58098;51.680;5.134;2023-02-20T06:09:55;102449.94;;;6.93;100.00
70546;BME280;58098;51.680;5.134;2023-02-20T06:12:20;102453.25;;;6.97;100.00
70546;BME280;58098;51.680;5.134;2023-02-20T06:14:46;102457.47;;;6.99;100.00
70546;BME280;58098;51.680;5.134;2023-02-20T06:17:11;102460.84;;;7.01;100.00
70546;BME280;58098;51.680;5.134;2023-02-20T06:19:36;102466.03;;;7.01;100.00
70546;BME280;58098;51.680;5.134;2023-02-20T06:22:01;102464.59;;;6.94;100.00
70546;BME280;58098;51.680;5.134;2023-02-20T06:24:27;102453.13;;;7.00;100.00
70546;BME280;58098;51.680;5.134;2023-02-20T06:26:53;102472.75;;;7.07;100.00
70546;BME280;58098;51.680;5.134;2023-02-20T06:29:19;102459.19;;;7.00;100.00
70546;BME280;58098;51.680;5.134;2023-02-20T06:31:45;102473.34;;;7.13;100.00
70546;BME280;58098;51.680;5.134;2023-02-20T06:34:10;102458.22;;;7.03;100.00
70546;BME280;58098;51.680;5.134;2023-02-20T06:36:38;102465.09;;;7.04;100.00
70546;BME280;58098;51.680;5.134;2023-02-20T06:39:05;102467.38;;;7.11;100.00
70546;BME280;58098;51.680;5.134;2023-02-20T06:41:31;102464.13;;;7.06;100.00
70546;BME280;58098;51.680;5.134;2023-02-20T06:43:56;102456.53;;;7.02;100.00
70546;BME280;58098;51.680;5.134;2023-02-20T06:46:22;102458.22;;;7.03;100.00
70546;BME280;58098;51.680;5.134;2023-02-20T06:48:53;102465.72;;;7.10;100.00
70546;BME280;58098;51.680;5.134;2023-02-20T06:51:27;102452.09;;;7.04;100.00
70546;BME280;58098;51.680;5.134;2023-02-20T06:53:53;102462.09;;;7.14;100.00
70546;BME280;58098;51.680;5.134;2023-02-20T06:56:22;102451.03;;;7.09;100.00
70546;BME280;58098;51.680;5.134;2023-02-20T06:58:49;102449.28;;;7.10;100.00
70546;BME280;58098;51.680;5.134;2023-02-20T07:01:16;102426.34;;;6.99;100.00
70546;BME280;58098;51.680;5.134;2023-02-20T07:03:42;102447.66;;;7.07;100.00
70546;BME280;58098;51.680;5.134;2023-02-20T07:06:09;102451.69;;;7.14;100.00
70546;BME280;58098;51.680;5.134;2023-02-20T07:08:35;102460.16;;;7.19;100.00
70546;BME280;58098;51.680;5.134;2023-02-20T07:11:01;102438.06;;;7.09;100.00
70546;BME280;58098;51.680;5.134;2023-02-20T07:13:26;102461.72;;;7.23;100.00
70546;BME280;58098;51.680;5.134;2023-02-20T07:15:51;102451.44;;;7.20;100.00
70546;BME280;58098;51.680;5.134;2023-02-20T07:18:16;102444.69;;;7.16;100.00
70546;BME280;58098;51.680;5.134;2023-02-20T07:20:43;102450.56;;;7.21;100.00
70546;BME280;58098;51.680;5.134;2023-02-20T07:23:08;102466.53;;;7.32;100.00
70546;BME280;58098;51.680;5.134;2023-02-20T07:25:34;102464.13;;;7.28;100.00
70546;BME280;58098;51.680;5.134;2023-02-20T07:27:59;102468.06;;;7.38;100.00
70546;BME280;58098;51.680;5.134;2023-02-20T07:30:25;102469.31;;;7.28;100.00
70546;BME280;58098;51.680;5.134;2023-02-20T07:32:50;102468.13;;;7.37;100.00
70546;BME280;58098;51.680;5.134;2023-02-20T07:35:16;102459.78;;;7.28;100.00
70546;BME280;58098;51.680;5.134;2023-02-20T07:37:41;102476.72;;;7.39;100.00
70546;BME280;58098;51.680;5.134;2023-02-20T07:40:08;102480.09;;;7.41;100.00
70546;BME280;58098;51.680;5.134;2023-02-20T07:42:33;102463.94;;;7.32;100.00
70546;BME280;58098;51.680;5.134;2023-02-20T07:44:59;102470.53;;;7.41;100.00
70546;BME280;58098;51.680;5.134;2023-02-20T07:47:24;102453.34;;;7.39;100.00
70546;BME280;58098;51.680;5.134;2023-02-20T07:49:49;102466.03;;;7.46;100.00
70546;BME280;58098;51.680;5.134;2023-02-20T07:52:15;102428.34;;;7.36;100.00
70546;BME280;58098;51.680;5.134;2023-02-20T07:54:40;102482.19;;;7.53;100.00
70546;BME280;58098;51.680;5.134;2023-02-20T07:57:05;102457.00;;;7.55;100.00
70546;BME280;58098;51.680;5.134;2023-02-20T07:59:31;102472.53;;;7.56;100.00
70546;BME280;58098;51.680;5.134;2023-02-20T08:01:56;102466.41;;;7.57;100.00
70546;BME280;58098;51.680;5.134;2023-02-20T08:04:21;102458.13;;;7.49;100.00
70546;BME280;58098;51.680;5.134;2023-02-20T08:06:47;102470.53;;;7.63;100.00
70546;BME280;58098;51.680;5.134;2023-02-20T08:09:12;102454.94;;;7.63;100.00
70546;BME280;58098;51.680;5.134;2023-02-20T08:11:37;102451.44;;;7.64;100.00
70546;BME280;58098;51.680;5.134;2023-02-20T08:14:04;102469.38;;;7.70;100.00
70546;BME280;58098;51.680;5.134;2023-02-20T08:16:29;102462.31;;;7.73;100.00
70546;BME280;58098;51.680;5.134;2023-02-20T08:18:55;102466.53;;;7.76;100.00
70546;BME280;58098;51.680;5.134;2023-02-20T08:21:20;102454.44;;;7.75;100.00
70546;BME280;58098;51.680;5.134;2023-02-20T08:23:46;102457.78;;;7.78;100.00
70546;BME280;58098;51.680;5.134;2023-02-20T08:26:11;102457.78;;;7.78;100.00
70546;BME280;58098;51.680;5.134;2023-02-20T08:28:37;102467.59;;;7.92;100.00
70546;BME280;58098;51.680;5.134;2023-02-20T08:31:03;102457.47;;;7.86;100.00
70546;BME280;58098;51.680;5.134;2023-02-20T08:33:28;102464.09;;;7.93;100.00
70546;BME280;58098;51.680;5.134;2023-02-20T08:35:54;102455.63;;;7.88;100.00
70546;BME280;58098;51.680;5.134;2023-02-20T08:38:37;102434.44;;;7.97;100.00
70546;BME280;58098;51.680;5.134;2023-02-20T08:41:04;102449.91;;;8.00;100.00
70546;BME280;58098;51.680;5.134;2023-02-20T08:43:31;102453.03;;;8.08;100.00
70546;BME280;58098;51.680;5.134;2023-02-20T08:45:57;102453.03;;;8.08;100.00
70546;BME280;58098;51.680;5.134;2023-02-20T08:48:22;102452.50;;;8.20;100.00
70546;BME280;58098;51.680;5.134;2023-02-20T08:50:47;102458.50;;;8.22;100.00
70546;BME280;58098;51.680;5.134;2023-02-20T08:53:14;102449.78;;;8.23;100.00
70546;BME280;58098;51.680;5.134;2023-02-20T08:55:39;102457.34;;;8.29;100.00
70546;BME280;58098;51.680;5.134;2023-02-20T08:58:05;102458.13;;;8.31;100.00
70546;BME280;58098;51.680;5.134;2023-02-20T09:00:30;102472.41;;;8.41;100.00
70546;BME280;58098;51.680;5.134;2023-02-20T09:02:55;102462.41;;;8.32;100.00
70546;BME280;58098;51.680;5.134;2023-02-20T09:05:21;102463.31;;;8.31;100.00
70546;BME280;58098;51.680;5.134;2023-02-20T09:07:46;102445.25;;;8.28;100.00
70546;BME280;58098;51.680;5.134;2023-02-20T09:10:12;102454.25;;;8.40;100.00
70546;BME280;58098;51.680;5.134;2023-02-20T09:12:37;102468.63;;;8.48;100.00
70546;BME280;58098;51.680;5.134;2023-02-20T09:15:07;102439.59;;;8.39;100.00
70546;BME280;58098;51.680;5.134;2023-02-20T09:17:32;102451.63;;;8.41;100.00
70546;BME280;58098;51.680;5.134;2023-02-20T09:19:58;102450.97;;;8.36;100.00
70546;BME280;58098;51.680;5.134;2023-02-20T09:22:24;102460.19;;;8.43;100.00
70546;BME280;58098;51.680;5.134;2023-02-20T09:24:50;102460.19;;;8.43;100.00
70546;BME280;58098;51.680;5.134;2023-02-20T09:27:16;102457.66;;;8.42;100.00
70546;BME280;58098;51.680;5.134;2023-02-20T09:29:41;102465.09;;;8.49;100.00
70546;BME280;58098;51.680;5.134;2023-02-20T09:32:09;102449.91;;;8.40;100.00
70546;BME280;58098;51.680;5.134;2023-02-20T09:34:34;102453.44;;;8.39;100.00
70546;BME280;58098;51.680;5.134;2023-02-20T09:36:59;102451.50;;;8.44;100.00
70546;BME280;58098;51.680;5.134;2023-02-20T09:39:24;102444.72;;;8.40;100.00
70546;BME280;58098;51.680;5.134;2023-02-20T09:44:37;102413.28;;;8.26;100.00
70546;BME280;58098;51.680;5.134;2023-02-20T09:49:48;102439.38;;;8.43;100.00
70546;BME280;58098;51.680;5.134;2023-02-20T09:52:14;102454.84;;;8.46;100.00
70546;BME280;58098;51.680;5.134;2023-02-20T09:54:55;102444.13;;;8.54;100.00
70546;BME280;58098;51.680;5.134;2023-02-20T09:57:25;102434.31;;;8.40;100.00
70546;BME280;58098;51.680;5.134;2023-02-20T09:59:58;102447.53;;;8.54;100.00
70546;BME280;58098;51.680;5.134;2023-02-20T10:02:33;102452.59;;;8.57;100.00
70546;BME280;58098;51.680;5.134;2023-02-20T10:05:12;102462.56;;;8.68;100.00
70546;BME280;58098;51.680;5.134;2023-02-20T10:07:43;102459.66;;;8.55;100.00
70546;BME280;58098;51.680;5.134;2023-02-20T10:10:25;102462.88;;;8.60;100.00
70546;BME280;58098;51.680;5.134;2023-02-20T10:18:43;102481.03;;;8.62;100.00
70546;BME280;58098;51.680;5.134;2023-02-20T10:27:11;102473.75;;;8.50;100.00
70546;BME280;58098;51.680;5.134;2023-02-20T10:29:41;102484.13;;;8.51;100.00
70546;BME280;58098;51.680;5.134;2023-02-20T10:32:13;102466.25;;;8.44;100.00
70546;BME280;58098;51.680;5.134;2023-02-20T10:34:46;102469.19;;;8.55;100.00
70546;BME280;58098;51.680;5.134;2023-02-20T10:37:19;102455.34;;;8.54;100.00
70546;BME280;58098;51.680;5.134;2023-02-20T10:40:10;102452.75;;;8.54;100.00
70546;BME280;58098;51.680;5.134;2023-02-20T10:42:45;102456.53;;;8.47;100.00
70546;BME280;58098;51.680;5.134;2023-02-20T10:45:18;102461.19;;;8.59;100.00
70546;BME280;58098;51.680;5.134;2023-02-20T10:47:49;102471.03;;;8.53;100.00
70546;BME280;58098;51.680;5.134;2023-02-20T10:50:24;102483.06;;;8.55;100.00
70546;BME280;58098;51.680;5.134;2023-02-20T10:52:58;102488.25;;;8.55;100.00
70546;BME280;58098;51.680;5.134;2023-02-20T10:55:36;102481.19;;;8.59;100.00
70546;BME280;58098;51.680;5.134;2023-02-20T10:58:09;102486.44;;;8.57;100.00
70546;BME280;58098;51.680;5.134;2023-02-20T11:00:42;102473.19;;;8.43;100.00
70546;BME280;58098;51.680;5.134;2023-02-20T11:03:26;102469.16;;;8.56;100.00
70546;BME280;58098;51.680;5.134;2023-02-20T11:05:54;102466.69;;;8.53;100.00
70546;BME280;58098;51.680;5.134;2023-02-20T11:08:21;102460.84;;;8.48;100.00
70546;BME280;58098;51.680;5.134;2023-02-20T11:10:48;102451.97;;;8.52;100.00
70546;BME280;58098;51.680;5.134;2023-02-20T11:13:17;102474.19;;;8.59;100.00
70546;BME280;58098;51.680;5.134;2023-02-20T11:15:45;102467.03;;;8.64;100.00
70546;BME280;58098;51.680;5.134;2023-02-20T11:18:34;102461.34;;;8.75;100.00
70546;BME280;58098;51.680;5.134;2023-02-20T11:21:00;102445.97;;;8.71;100.00
70546;BME280;58098;51.680;5.134;2023-02-20T11:23:37;102476.75;;;8.80;100.00
70546;BME280;58098;51.680;5.134;2023-02-20T11:26:32;102473.72;;;8.89;100.00
70546;BME280;58098;51.680;5.134;2023-02-20T11:29:05;102458.84;;;8.92;100.00
70546;BME280;58098;51.680;5.134;2023-02-20T11:31:35;102453.53;;;8.94;100.00
70546;BME280;58098;51.680;5.134;2023-02-20T11:34:03;102417.09;;;8.94;100.00
70546;BME280;58098;51.680;5.134;2023-02-20T11:36:36;102424.06;;;9.12;100.00
70546;BME280;58098;51.680;5.134;2023-02-20T11:39:04;102411.03;;;9.12;100.00
70546;BME280;58098;51.680;5.134;2023-02-20T11:41:37;102408.53;;;9.27;100.00
70546;BME280;58098;51.680;5.134;2023-02-20T11:44:18;102417.06;;;9.48;100.00
70546;BME280;58098;51.680;5.134;2023-02-20T11:46:44;102410.91;;;9.49;100.00
70546;BME280;58098;51.680;5.134;2023-02-20T11:49:25;102416.75;;;9.54;100.00
70546;BME280;58098;51.680;5.134;2023-02-20T11:52:06;102403.81;;;9.53;100.00
70546;BME280;58098;51.680;5.134;2023-02-20T11:54:31;102413.25;;;9.55;100.00
70546;BME280;58098;51.680;5.134;2023-02-20T11:57:05;102399.22;;;9.75;100.00
70546;BME280;58098;51.680;5.134;2023-02-20T11:59:43;102393.25;;;9.73;100.00
70546;BME280;58098;51.680;5.134;2023-02-20T12:10:30;102408.94;;;9.88;100.00
70546;BME280;58098;51.680;5.134;2023-02-20T12:12:59;102377.22;;;9.80;100.00
70546;BME280;58098;51.680;5.134;2023-02-20T12:15:27;102367.22;;;9.88;100.00
70546;BME280;58098;51.680;5.134;2023-02-20T12:20:28;102364.19;;;9.80;100.00
70546;BME280;58098;51.680;5.134;2023-02-20T12:23:05;102363.56;;;9.75;100.00
70546;BME280;58098;51.680;5.134;2023-02-20T12:25:56;102356.75;;;9.73;100.00
70546;BME280;58098;51.680;5.134;2023-02-20T12:28:56;102375.03;;;9.88;100.00
70546;BME280;58098;51.680;5.134;2023-02-20T12:31:34;102372.75;;;9.82;100.00
70546;BME280;58098;51.680;5.134;2023-02-20T12:37:12;102353.56;;;9.83;100.00
70546;BME280;58098;51.680;5.134;2023-02-20T12:39:53;102343.25;;;9.82;100.00
70546;BME280;58098;51.680;5.134;2023-02-20T12:45:32;102342.03;;;9.72;100.00
70546;BME280;58098;51.680;5.134;2023-02-20T12:48:16;102341.50;;;9.65;100.00
70546;BME280;58098;51.680;5.134;2023-02-20T12:51:11;102332.59;;;9.69;100.00
70546;BME280;58098;51.680;5.134;2023-02-20T13:02:24;102367.09;;;9.74;100.00
70546;BME280;58098;51.680;5.134;2023-02-20T13:04:54;102350.56;;;9.58;100.00
70546;BME280;58098;51.680;5.134;2023-02-20T13:07:28;102347.63;;;9.64;100.00
70546;BME280;58098;51.680;5.134;2023-02-20T13:10:26;102346.09;;;9.77;100.00
70546;BME280;58098;51.680;5.134;2023-02-20T13:12:54;102343.97;;;9.68;100.00
70546;BME280;58098;51.680;5.134;2023-02-20T13:15:40;102331.84;;;9.67;100.00
70546;BME280;58098;51.680;5.134;2023-02-20T13:21:21;102345.91;;;9.98;100.00
70546;BME280;58098;51.680;5.134;2023-02-20T13:23:47;102327.69;;;9.80;100.00
70546;BME280;58098;51.680;5.134;2023-02-20T13:28:52;102354.56;;;9.81;100.00
70546;BME280;58098;51.680;5.134;2023-02-20T13:31:21;102358.03;;;9.81;100.00
70546;BME280;58098;51.680;5.134;2023-02-20T13:33:50;102340.94;;;9.76;100.00
70546;BME280;58098;51.680;5.134;2023-02-20T13:36:36;102353.28;;;9.72;100.00
70546;BME280;58098;51.680;5.134;2023-02-20T13:47:39;102316.19;;;9.67;100.00
70546;BME280;58098;51.680;5.134;2023-02-20T13:52:36;102338.31;;;9.76;100.00
70546;BME280;58098;51.680;5.134;2023-02-20T14:00:24;102322.66;;;9.60;100.00
70546;BME280;58098;51.680;5.134;2023-02-20T14:02:50;102296.06;;;9.54;100.00
70546;BME280;58098;51.680;5.134;2023-02-20T14:05:22;102296.50;;;9.62;100.00
70546;BME280;58098;51.680;5.134;2023-02-20T14:07:49;102296.09;;;9.69;100.00
70546;BME280;58098;51.680;5.134;2023-02-20T14:10:30;102288.38;;;9.68;100.00
70546;BME280;58098;51.680;5.134;2023-02-20T14:13:00;102285.16;;;9.63;100.00
70546;BME280;58098;51.680;5.134;2023-02-20T14:15:27;102283.91;;;9.70;100.00
70546;BME280;58098;51.680;5.134;2023-02-20T14:17:55;102257.81;;;9.54;100.00
70546;BME280;58098;51.680;5.134;2023-02-20T14:20:24;102274.88;;;9.60;100.00
70546;BME280;58098;51.680;5.134;2023-02-20T14:25:38;102273.97;;;9.61;100.00
70546;BME280;58098;51.680;5.134;2023-02-20T14:28:07;102228.13;;;9.41;100.00
70546;BME280;58098;51.680;5.134;2023-02-20T14:30:35;102269.44;;;9.64;100.00